sensor_id;sensor_type;location;lat;lon;timestamp;P1;durP1;ratioP1;P2;durP2;ratioP2
72785;SDS011;60902;53.876;10.674;2024-02-28T00:00:05;13.30;;;10.35;;
72785;SDS011;60902;53.876;10.674;2024-02-28T00:00:17;13.70;;;10.38;;
72785;SDS011;60902;53.876;10.674;2024-02-28T00:00:30;13.48;;;9.90;;
72785;SDS011;60902;53.876;10.674;2024-02-28T00:00:43;13.30;;;9.85;;
72785;SDS011;60902;53.876;10.674;2024-02-28T00:00:55;12.85;;;9.60;;
72785;SDS011;60902;53.876;10.674;2024-02-28T00:01:08;13.20;;;9.50;;
72785;SDS011;60902;53.876;10.674;2024-02-28T00:01:19;12.85;;;9.20;;
72785;SDS011;60902;53.876;10.674;2024-02-28T00:01:30;13.00;;;9.57;;
72785;SDS011;60902;53.876;10.674;2024-02-28T00:01:47;13.60;;;10.05;;
72785;SDS011;60902;53.876;10.674;2024-02-28T00:01:58;14.18;;;9.85;;
72785;SDS011;60902;53.876;10.674;2024-02-28T00:02:09;13.85;;;9.60;;
72785;SDS011;60902;53.876;10.674;2024-02-28T00:02:20;13.43;;;9.63;;
72785;SDS011;60902;53.876;10.674;2024-02-28T00:02:31;13.00;;;9.75;;
72785;SDS011;60902;53.876;10.674;2024-02-28T00:02:42;12.98;;;10.10;;
72785;SDS011;60902;53.876;10.674;2024-02-28T00:02:56;13.20;;;10.40;;
72785;SDS011;60902;53.876;10.674;2024-02-28T00:03:06;13.20;;;10.15;;
72785;SDS011;60902;53.876;10.674;2024-02-28T00:03:17;12.90;;;9.63;;
72785;SDS011;60902;53.876;10.674;2024-02-28T00:03:31;12.85;;;9.48;;
72785;SDS011;60902;53.876;10.674;2024-02-28T00:03:43;13.13;;;9.90;;
72785;SDS011;60902;53.876;10.674;2024-02-28T00:03:54;13.13;;;10.02;;
72785;SDS011;60902;53.876;10.674;2024-02-28T00:04:05;13.02;;;10.02;;
72785;SDS011;60902;53.876;10.674;2024-02-28T00:04:16;12.68;;;9.68;;
72785;SDS011;60902;53.876;10.674;2024-02-28T00:04:28;12.20;;;9.35;;
72785;SDS011;60902;53.876;10.674;2024-02-28T00:04:39;12.70;;;9.43;;
72785;SDS011;60902;53.876;10.674;2024-02-28T00:04:51;13.60;;;9.85;;
72785;SDS011;60902;53.876;10.674;2024-02-28T00:05:02;13.27;;;9.98;;
72785;SDS011;60902;53.876;10.674;2024-02-28T00:05:14;13.32;;;10.13;;
72785;SDS011;60902;53.876;10.674;2024-02-28T00:05:25;13.18;;;9.73;;
72785;SDS011;60902;53.876;10.674;2024-02-28T00:05:36;14.15;;;10.07;;
72785;SDS011;60902;53.876;10.674;2024-02-28T00:05:47;13.88;;;9.60;;
72785;SDS011;60902;53.876;10.674;2024-02-28T00:05:58;13.90;;;10.00;;
72785;SDS011;60902;53.876;10.674;2024-02-28T00:06:09;13.20;;;9.98;;
72785;SDS011;60902;53.876;10.674;2024-02-28T00:06:20;13.48;;;10.57;;
72785;SDS011;60902;53.876;10.674;2024-02-28T00:06:31;13.65;;;10.50;;
72785;SDS011;60902;53.876;10.674;2024-02-28T00:06:43;13.90;;;10.55;;
72785;SDS011;60902;53.876;10.674;2024-02-28T00:06:56;13.80;;;10.45;;
72785;SDS011;60902;53.876;10.674;2024-02-28T00:07:09;13.85;;;10.35;;
72785;SDS011;60902;53.876;10.674;2024-02-28T00:07:20;13.57;;;10.38;;
72785;SDS011;60902;53.876;10.674;2024-02-28T00:07:31;13.23;;;10.20;;
72785;SDS011;60902;53.876;10.674;2024-02-28T00:07:42;13.15;;;10.07;;
72785;SDS011;60902;53.876;10.674;2024-02-28T00:07:54;13.20;;;9.73;;
72785;SDS011;60902;53.876;10.674;2024-02-28T00:08:06;12.88;;;9.43;;
72785;SDS011;60902;53.876;10.674;2024-02-28T00:08:17;13.30;;;9.63;;
72785;SDS011;60902;53.876;10.674;2024-02-28T00:08:30;13.05;;;9.50;;
72785;SDS011;60902;53.876;10.674;2024-02-28T00:08:41;12.65;;;9.40;;
72785;SDS011;60902;53.876;10.674;2024-02-28T00:08:52;12.52;;;9.50;;
72785;SDS011;60902;53.876;10.674;2024-02-28T00:09:04;12.60;;;9.30;;
72785;SDS011;60902;53.876;10.674;2024-02-28T00:09:16;12.43;;;9.30;;
72785;SDS011;60902;53.876;10.674;2024-02-28T00:09:27;12.48;;;9.40;;
72785;SDS011;60902;53.876;10.674;2024-02-28T00:09:38;12.93;;;9.68;;
72785;SDS011;60902;53.876;10.674;2024-02-28T00:09:49;13.30;;;9.85;;
72785;SDS011;60902;53.876;10.674;2024-02-28T00:10:00;12.93;;;9.75;;
72785;SDS011;60902;53.876;10.674;2024-02-28T00:10:11;13.05;;;10.02;;
72785;SDS011;60902;53.876;10.674;2024-02-28T00:10:24;12.73;;;9.70;;
72785;SDS011;60902;53.876;10.674;2024-02-28T00:10:35;12.63;;;9.70;;
72785;SDS011;60902;53.876;10.674;2024-02-28T00:10:46;12.52;;;9.60;;
72785;SDS011;60902;53.876;10.674;2024-02-28T00:10:58;13.13;;;9.60;;
72785;SDS011;60902;53.876;10.674;2024-02-28T00:11:09;13.60;;;9.93;;
72785;SDS011;60902;53.876;10.674;2024-02-28T00:11:20;13.43;;;9.80;;
72785;SDS011;60902;53.876;10.674;2024-02-28T00:11:31;13.30;;;10.10;;
72785;SDS011;60902;53.876;10.674;2024-02-28T00:11:43;13.30;;;9.95;;
72785;SDS011;60902;53.876;10.674;2024-02-28T00:11:55;13.40;;;9.90;;
72785;SDS011;60902;53.876;10.674;2024-02-28T00:12:07;13.73;;;9.60;;
72785;SDS011;60902;53.876;10.674;2024-02-28T00:12:21;13.68;;;9.63;;
72785;SDS011;60902;53.876;10.674;2024-02-28T00:12:35;13.63;;;9.77;;
72785;SDS011;60902;53.876;10.674;2024-02-28T00:12:46;13.20;;;9.88;;
72785;SDS011;60902;53.876;10.674;2024-02-28T00:12:57;13.18;;;9.82;;
72785;SDS011;60902;53.876;10.674;2024-02-28T00:13:08;13.25;;;10.20;;
72785;SDS011;60902;53.876;10.674;2024-02-28T00:13:19;13.30;;;10.10;;
72785;SDS011;60902;53.876;10.674;2024-02-28T00:13:33;12.85;;;9.65;;
72785;SDS011;60902;53.876;10.674;2024-02-28T00:13:44;12.50;;;9.63;;
72785;SDS011;60902;53.876;10.674;2024-02-28T00:13:55;12.93;;;9.70;;
72785;SDS011;60902;53.876;10.674;2024-02-28T00:14:06;13.73;;;10.00;;
72785;SDS011;60902;53.876;10.674;2024-02-28T00:14:17;13.80;;;10.00;;
72785;SDS011;60902;53.876;10.674;2024-02-28T00:14:29;13.25;;;9.88;;
72785;SDS011;60902;53.876;10.674;2024-02-28T00:14:40;13.07;;;9.80;;
72785;SDS011;60902;53.876;10.674;2024-02-28T00:14:51;13.10;;;10.00;;
72785;SDS011;60902;53.876;10.674;2024-02-28T00:15:02;12.88;;;9.80;;
72785;SDS011;60902;53.876;10.674;2024-02-28T00:15:15;12.63;;;9.57;;
72785;SDS011;60902;53.876;10.674;2024-02-28T00:15:27;12.73;;;10.02;;
72785;SDS011;60902;53.876;10.674;2024-02-28T00:15:39;12.50;;;10.10;;
72785;SDS011;60902;53.876;10.674;2024-02-28T00:15:50;12.55;;;9.98;;
72785;SDS011;60902;53.876;10.674;2024-02-28T00:16:03;12.52;;;9.75;;
72785;SDS011;60902;53.876;10.674;2024-02-28T00:16:14;13.18;;;9.82;;
72785;SDS011;60902;53.876;10.674;2024-02-28T00:16:25;13.20;;;9.75;;
72785;SDS011;60902;53.876;10.674;2024-02-28T00:16:36;12.85;;;9.50;;
72785;SDS011;60902;53.876;10.674;2024-02-28T00:16:47;12.73;;;9.43;;
72785;SDS011;60902;53.876;10.674;2024-02-28T00:16:58;12.70;;;9.25;;
72785;SDS011;60902;53.876;10.674;2024-02-28T00:17:09;12.95;;;9.52;;
72785;SDS011;60902;53.876;10.674;2024-02-28T00:17:21;13.38;;;9.93;;
72785;SDS011;60902;53.876;10.674;2024-02-28T00:17:32;13.20;;;10.02;;
72785;SDS011;60902;53.876;10.674;2024-02-28T00:17:44;12.80;;;9.70;;
72785;SDS011;60902;53.876;10.674;2024-02-28T00:17:55;12.85;;;9.30;;
72785;SDS011;60902;53.876;10.674;2024-02-28T00:18:06;13.05;;;9.32;;
72785;SDS011;60902;53.876;10.674;2024-02-28T00:18:17;13.27;;;9.65;;
72785;SDS011;60902;53.876;10.674;2024-02-28T00:18:29;12.70;;;9.48;;
72785;SDS011;60902;53.876;10.674;2024-02-28T00:18:41;12.93;;;9.85;;
72785;SDS011;60902;53.876;10.674;2024-02-28T00:18:52;13.23;;;9.82;;
72785;SDS011;60902;53.876;10.674;2024-02-28T00:19:04;13.13;;;9.82;;
72785;SDS011;60902;53.876;10.674;2024-02-28T00:19:15;12.73;;;9.60;;
72785;SDS011;60902;53.876;10.674;2024-02-28T00:19:28;12.68;;;9.90;;
72785;SDS011;60902;53.876;10.674;2024-02-28T00:19:39;12.70;;;9.93;;
72785;SDS011;60902;53.876;10.674;2024-02-28T00:19:51;12.82;;;10.20;;
72785;SDS011;60902;53.876;10.674;2024-02-28T00:20:02;12.85;;;10.18;;
72785;SDS011;60902;53.876;10.674;2024-02-28T00:20:14;12.75;;;10.05;;
72785;SDS011;60902;53.876;10.674;2024-02-28T00:20:25;13.30;;;10.20;;
72785;SDS011;60902;53.876;10.674;2024-02-28T00:20:39;13.43;;;10.25;;
72785;SDS011;60902;53.876;10.674;2024-02-28T00:20:52;13.07;;;10.05;;
72785;SDS011;60902;53.876;10.674;2024-02-28T00:21:04;12.80;;;9.68;;
72785;SDS011;60902;53.876;10.674;2024-02-28T00:21:15;13.23;;;9.68;;
72785;SDS011;60902;53.876;10.674;2024-02-28T00:21:26;13.38;;;9.85;;
72785;SDS011;60902;53.876;10.674;2024-02-28T00:21:38;13.25;;;9.73;;
72785;SDS011;60902;53.876;10.674;2024-02-28T00:21:49;13.15;;;9.93;;
72785;SDS011;60902;53.876;10.674;2024-02-28T00:22:01;13.18;;;9.88;;
72785;SDS011;60902;53.876;10.674;2024-02-28T00:22:12;12.38;;;9.23;;
72785;SDS011;60902;53.876;10.674;2024-02-28T00:22:23;12.10;;;8.98;;
72785;SDS011;60902;53.876;10.674;2024-02-28T00:22:36;12.27;;;9.00;;
72785;SDS011;60902;53.876;10.674;2024-02-28T00:22:47;12.75;;;9.55;;
72785;SDS011;60902;53.876;10.674;2024-02-28T00:22:58;13.10;;;9.95;;
72785;SDS011;60902;53.876;10.674;2024-02-28T00:23:09;13.43;;;10.05;;
72785;SDS011;60902;53.876;10.674;2024-02-28T00:23:20;13.20;;;9.98;;
72785;SDS011;60902;53.876;10.674;2024-02-28T00:23:33;13.23;;;9.98;;
72785;SDS011;60902;53.876;10.674;2024-02-28T00:23:44;12.98;;;9.93;;
72785;SDS011;60902;53.876;10.674;2024-02-28T00:23:57;12.85;;;9.85;;
72785;SDS011;60902;53.876;10.674;2024-02-28T00:24:08;13.75;;;10.40;;
72785;SDS011;60902;53.876;10.674;2024-02-28T00:24:20;13.77;;;10.43;;
72785;SDS011;60902;53.876;10.674;2024-02-28T00:24:30;13.52;;;10.15;;
72785;SDS011;60902;53.876;10.674;2024-02-28T00:24:42;13.60;;;9.68;;
72785;SDS011;60902;53.876;10.674;2024-02-28T00:24:53;13.40;;;9.70;;
72785;SDS011;60902;53.876;10.674;2024-02-28T00:25:05;12.93;;;9.82;;
72785;SDS011;60902;53.876;10.674;2024-02-28T00:25:16;12.30;;;9.50;;
72785;SDS011;60902;53.876;10.674;2024-02-28T00:25:28;12.60;;;9.45;;
72785;SDS011;60902;53.876;10.674;2024-02-28T00:25:39;12.35;;;9.27;;
72785;SDS011;60902;53.876;10.674;2024-02-28T00:25:50;12.57;;;9.35;;
72785;SDS011;60902;53.876;10.674;2024-02-28T00:26:03;12.00;;;8.82;;
72785;SDS011;60902;53.876;10.674;2024-02-28T00:26:14;12.05;;;8.73;;
72785;SDS011;60902;53.876;10.674;2024-02-28T00:26:25;11.93;;;8.75;;
72785;SDS011;60902;53.876;10.674;2024-02-28T00:26:40;11.80;;;8.93;;
72785;SDS011;60902;53.876;10.674;2024-02-28T00:26:52;12.20;;;9.52;;
72785;SDS011;60902;53.876;10.674;2024-02-28T00:27:04;12.45;;;9.27;;
72785;SDS011;60902;53.876;10.674;2024-02-28T00:27:15;12.73;;;9.40;;
72785;SDS011;60902;53.876;10.674;2024-02-28T00:27:27;13.43;;;9.82;;
72785;SDS011;60902;53.876;10.674;2024-02-28T00:27:38;13.73;;;10.25;;
72785;SDS011;60902;53.876;10.674;2024-02-28T00:27:50;13.27;;;10.23;;
72785;SDS011;60902;53.876;10.674;2024-02-28T00:28:01;12.88;;;10.00;;
72785;SDS011;60902;53.876;10.674;2024-02-28T00:28:13;13.30;;;10.05;;
72785;SDS011;60902;53.876;10.674;2024-02-28T00:28:27;13.40;;;10.10;;
72785;SDS011;60902;53.876;10.674;2024-02-28T00:28:38;13.75;;;10.13;;
72785;SDS011;60902;53.876;10.674;2024-02-28T00:28:50;13.68;;;9.95;;
72785;SDS011;60902;53.876;10.674;2024-02-28T00:29:01;13.23;;;9.82;;
72785;SDS011;60902;53.876;10.674;2024-02-28T00:29:12;13.20;;;9.85;;
72785;SDS011;60902;53.876;10.674;2024-02-28T00:29:23;12.98;;;9.73;;
72785;SDS011;60902;53.876;10.674;2024-02-28T00:29:34;12.88;;;9.85;;
72785;SDS011;60902;53.876;10.674;2024-02-28T00:29:45;12.48;;;9.85;;
72785;SDS011;60902;53.876;10.674;2024-02-28T00:29:57;12.80;;;9.95;;
72785;SDS011;60902;53.876;10.674;2024-02-28T00:30:08;13.18;;;9.88;;
72785;SDS011;60902;53.876;10.674;2024-02-28T00:30:20;13.35;;;9.82;;
72785;SDS011;60902;53.876;10.674;2024-02-28T00:30:31;12.80;;;9.55;;
72785;SDS011;60902;53.876;10.674;2024-02-28T00:30:43;12.80;;;9.43;;
72785;SDS011;60902;53.876;10.674;2024-02-28T00:30:55;12.73;;;9.23;;
72785;SDS011;60902;53.876;10.674;2024-02-28T00:31:06;12.80;;;9.60;;
72785;SDS011;60902;53.876;10.674;2024-02-28T00:31:17;12.93;;;10.00;;
72785;SDS011;60902;53.876;10.674;2024-02-28T00:31:28;13.00;;;10.15;;
72785;SDS011;60902;53.876;10.674;2024-02-28T00:31:39;13.13;;;9.82;;
72785;SDS011;60902;53.876;10.674;2024-02-28T00:31:50;12.80;;;9.40;;
72785;SDS011;60902;53.876;10.674;2024-02-28T00:32:02;12.80;;;9.45;;
72785;SDS011;60902;53.876;10.674;2024-02-28T00:32:13;12.73;;;9.43;;
72785;SDS011;60902;53.876;10.674;2024-02-28T00:32:24;13.05;;;9.77;;
72785;SDS011;60902;53.876;10.674;2024-02-28T00:32:35;12.63;;;9.75;;
72785;SDS011;60902;53.876;10.674;2024-02-28T00:32:46;13.00;;;10.05;;
72785;SDS011;60902;53.876;10.674;2024-02-28T00:32:58;13.15;;;9.73;;
72785;SDS011;60902;53.876;10.674;2024-02-28T00:33:09;12.75;;;9.55;;
72785;SDS011;60902;53.876;10.674;2024-02-28T00:33:21;12.35;;;9.48;;
72785;SDS011;60902;53.876;10.674;2024-02-28T00:33:32;12.35;;;9.60;;
72785;SDS011;60902;53.876;10.674;2024-02-28T00:33:43;13.02;;;9.73;;
72785;SDS011;60902;53.876;10.674;2024-02-28T00:33:54;13.88;;;9.93;;
72785;SDS011;60902;53.876;10.674;2024-02-28T00:34:05;13.85;;;9.88;;
72785;SDS011;60902;53.876;10.674;2024-02-28T00:34:18;13.40;;;9.93;;
72785;SDS011;60902;53.876;10.674;2024-02-28T00:34:29;12.63;;;9.80;;
72785;SDS011;60902;53.876;10.674;2024-02-28T00:34:40;12.43;;;9.45;;
72785;SDS011;60902;53.876;10.674;2024-02-28T00:34:51;12.20;;;9.35;;
72785;SDS011;60902;53.876;10.674;2024-02-28T00:35:04;12.25;;;9.18;;
72785;SDS011;60902;53.876;10.674;2024-02-28T00:35:15;12.82;;;9.48;;
72785;SDS011;60902;53.876;10.674;2024-02-28T00:35:26;13.52;;;9.68;;
72785;SDS011;60902;53.876;10.674;2024-02-28T00:35:39;13.30;;;9.73;;
72785;SDS011;60902;53.876;10.674;2024-02-28T00:35:50;13.07;;;9.73;;
72785;SDS011;60902;53.876;10.674;2024-02-28T00:36:06;13.25;;;9.68;;
72785;SDS011;60902;53.876;10.674;2024-02-28T00:36:17;13.02;;;9.60;;
72785;SDS011;60902;53.876;10.674;2024-02-28T00:36:28;12.13;;;9.40;;
72785;SDS011;60902;53.876;10.674;2024-02-28T00:36:41;12.18;;;9.40;;
72785;SDS011;60902;53.876;10.674;2024-02-28T00:36:53;11.85;;;9.18;;
72785;SDS011;60902;53.876;10.674;2024-02-28T00:37:04;11.70;;;9.13;;
72785;SDS011;60902;53.876;10.674;2024-02-28T00:37:16;11.88;;;9.13;;
72785;SDS011;60902;53.876;10.674;2024-02-28T00:37:27;12.07;;;9.25;;
72785;SDS011;60902;53.876;10.674;2024-02-28T00:37:38;12.63;;;9.63;;
72785;SDS011;60902;53.876;10.674;2024-02-28T00:37:49;12.82;;;9.88;;
72785;SDS011;60902;53.876;10.674;2024-02-28T00:38:00;13.00;;;9.82;;
72785;SDS011;60902;53.876;10.674;2024-02-28T00:38:12;13.05;;;9.70;;
72785;SDS011;60902;53.876;10.674;2024-02-28T00:38:23;12.77;;;9.52;;
72785;SDS011;60902;53.876;10.674;2024-02-28T00:38:34;12.07;;;9.18;;
72785;SDS011;60902;53.876;10.674;2024-02-28T00:38:45;11.93;;;9.02;;
72785;SDS011;60902;53.876;10.674;2024-02-28T00:38:56;12.35;;;9.10;;
72785;SDS011;60902;53.876;10.674;2024-02-28T00:39:07;12.70;;;9.32;;
72785;SDS011;60902;53.876;10.674;2024-02-28T00:39:22;12.43;;;9.55;;
72785;SDS011;60902;53.876;10.674;2024-02-28T00:39:32;12.40;;;9.75;;
72785;SDS011;60902;53.876;10.674;2024-02-28T00:39:44;12.13;;;9.48;;
72785;SDS011;60902;53.876;10.674;2024-02-28T00:39:56;12.73;;;9.77;;
72785;SDS011;60902;53.876;10.674;2024-02-28T00:40:08;12.70;;;9.75;;
72785;SDS011;60902;53.876;10.674;2024-02-28T00:40:20;12.60;;;9.73;;
72785;SDS011;60902;53.876;10.674;2024-02-28T00:40:31;12.25;;;9.13;;
72785;SDS011;60902;53.876;10.674;2024-02-28T00:40:43;12.52;;;9.15;;
72785;SDS011;60902;53.876;10.674;2024-02-28T00:40:54;12.45;;;9.27;;
72785;SDS011;60902;53.876;10.674;2024-02-28T00:41:06;12.60;;;9.40;;
72785;SDS011;60902;53.876;10.674;2024-02-28T00:41:17;12.55;;;9.57;;
72785;SDS011;60902;53.876;10.674;2024-02-28T00:41:28;12.45;;;9.52;;
72785;SDS011;60902;53.876;10.674;2024-02-28T00:41:39;12.30;;;9.40;;
72785;SDS011;60902;53.876;10.674;2024-02-28T00:41:50;12.50;;;9.35;;
72785;SDS011;60902;53.876;10.674;2024-02-28T00:42:01;12.25;;;9.27;;
72785;SDS011;60902;53.876;10.674;2024-02-28T00:42:12;12.32;;;9.35;;
72785;SDS011;60902;53.876;10.674;2024-02-28T00:42:23;12.35;;;9.45;;
72785;SDS011;60902;53.876;10.674;2024-02-28T00:42:36;12.68;;;9.55;;
72785;SDS011;60902;53.876;10.674;2024-02-28T00:42:49;12.50;;;9.38;;
72785;SDS011;60902;53.876;10.674;2024-02-28T00:43:00;12.23;;;9.23;;
72785;SDS011;60902;53.876;10.674;2024-02-28T00:43:11;12.38;;;9.20;;
72785;SDS011;60902;53.876;10.674;2024-02-28T00:43:23;12.50;;;9.45;;
72785;SDS011;60902;53.876;10.674;2024-02-28T00:43:34;12.98;;;9.77;;
72785;SDS011;60902;53.876;10.674;2024-02-28T00:43:45;13.25;;;10.00;;
72785;SDS011;60902;53.876;10.674;2024-02-28T00:43:56;13.35;;;9.85;;
72785;SDS011;60902;53.876;10.674;2024-02-28T00:44:07;12.93;;;9.65;;
72785;SDS011;60902;53.876;10.674;2024-02-28T00:44:19;12.45;;;9.30;;
72785;SDS011;60902;53.876;10.674;2024-02-28T00:44:31;12.40;;;9.38;;
72785;SDS011;60902;53.876;10.674;2024-02-28T00:44:42;12.82;;;9.77;;
72785;SDS011;60902;53.876;10.674;2024-02-28T00:44:53;13.30;;;9.98;;
72785;SDS011;60902;53.876;10.674;2024-02-28T00:45:04;13.23;;;10.10;;
72785;SDS011;60902;53.876;10.674;2024-02-28T00:45:16;13.07;;;9.82;;
72785;SDS011;60902;53.876;10.674;2024-02-28T00:45:27;13.35;;;9.80;;
72785;SDS011;60902;53.876;10.674;2024-02-28T00:45:38;12.98;;;9.68;;
72785;SDS011;60902;53.876;10.674;2024-02-28T00:45:49;13.25;;;9.75;;
72785;SDS011;60902;53.876;10.674;2024-02-28T00:46:00;12.73;;;9.65;;
72785;SDS011;60902;53.876;10.674;2024-02-28T00:46:11;13.18;;;9.68;;
72785;SDS011;60902;53.876;10.674;2024-02-28T00:46:23;13.30;;;9.70;;
72785;SDS011;60902;53.876;10.674;2024-02-28T00:46:34;12.93;;;9.50;;
72785;SDS011;60902;53.876;10.674;2024-02-28T00:46:45;12.20;;;9.25;;
72785;SDS011;60902;53.876;10.674;2024-02-28T00:46:57;12.20;;;9.48;;
72785;SDS011;60902;53.876;10.674;2024-02-28T00:47:11;12.60;;;9.65;;
72785;SDS011;60902;53.876;10.674;2024-02-28T00:47:22;13.30;;;9.88;;
72785;SDS011;60902;53.876;10.674;2024-02-28T00:47:33;13.57;;;9.85;;
72785;SDS011;60902;53.876;10.674;2024-02-28T00:47:44;13.45;;;9.98;;
72785;SDS011;60902;53.876;10.674;2024-02-28T00:47:55;12.75;;;9.80;;
72785;SDS011;60902;53.876;10.674;2024-02-28T00:48:07;12.10;;;9.23;;
72785;SDS011;60902;53.876;10.674;2024-02-28T00:48:18;11.98;;;9.20;;
72785;SDS011;60902;53.876;10.674;2024-02-28T00:48:29;12.00;;;9.27;;
72785;SDS011;60902;53.876;10.674;2024-02-28T00:48:41;12.30;;;9.68;;
72785;SDS011;60902;53.876;10.674;2024-02-28T00:48:52;12.45;;;9.57;;
72785;SDS011;60902;53.876;10.674;2024-02-28T00:49:03;12.37;;;9.40;;
72785;SDS011;60902;53.876;10.674;2024-02-28T00:49:14;12.32;;;9.50;;
72785;SDS011;60902;53.876;10.674;2024-02-28T00:49:25;12.27;;;9.32;;
72785;SDS011;60902;53.876;10.674;2024-02-28T00:49:36;12.65;;;9.35;;
72785;SDS011;60902;53.876;10.674;2024-02-28T00:49:48;13.05;;;9.75;;
72785;SDS011;60902;53.876;10.674;2024-02-28T00:49:59;12.80;;;10.05;;
72785;SDS011;60902;53.876;10.674;2024-02-28T00:50:13;12.50;;;9.57;;
72785;SDS011;60902;53.876;10.674;2024-02-28T00:50:24;12.40;;;9.30;;
72785;SDS011;60902;53.876;10.674;2024-02-28T00:50:35;12.60;;;9.23;;
72785;SDS011;60902;53.876;10.674;2024-02-28T00:50:47;12.90;;;9.68;;
72785;SDS011;60902;53.876;10.674;2024-02-28T00:50:58;13.00;;;9.87;;
72785;SDS011;60902;53.876;10.674;2024-02-28T00:51:09;13.02;;;9.75;;
72785;SDS011;60902;53.876;10.674;2024-02-28T00:51:20;12.60;;;9.55;;
72785;SDS011;60902;53.876;10.674;2024-02-28T00:51:31;12.77;;;9.73;;
72785;SDS011;60902;53.876;10.674;2024-02-28T00:51:43;12.70;;;9.80;;
72785;SDS011;60902;53.876;10.674;2024-02-28T00:51:56;12.43;;;9.63;;
72785;SDS011;60902;53.876;10.674;2024-02-28T00:52:07;11.98;;;9.27;;
72785;SDS011;60902;53.876;10.674;2024-02-28T00:52:18;11.90;;;9.18;;
72785;SDS011;60902;53.876;10.674;2024-02-28T00:52:29;11.95;;;9.07;;
72785;SDS011;60902;53.876;10.674;2024-02-28T00:52:41;12.25;;;9.70;;
72785;SDS011;60902;53.876;10.674;2024-02-28T00:52:54;12.82;;;10.02;;
72785;SDS011;60902;53.876;10.674;2024-02-28T00:53:05;12.05;;;9.45;;
72785;SDS011;60902;53.876;10.674;2024-02-28T00:53:16;11.77;;;8.88;;
72785;SDS011;60902;53.876;10.674;2024-02-28T00:53:27;12.03;;;9.03;;
72785;SDS011;60902;53.876;10.674;2024-02-28T00:53:38;13.15;;;9.63;;
72785;SDS011;60902;53.876;10.674;2024-02-28T00:53:49;13.10;;;9.65;;
72785;SDS011;60902;53.876;10.674;2024-02-28T00:54:00;13.45;;;9.77;;
72785;SDS011;60902;53.876;10.674;2024-02-28T00:54:11;13.52;;;9.57;;
72785;SDS011;60902;53.876;10.674;2024-02-28T00:54:23;13.05;;;9.40;;
72785;SDS011;60902;53.876;10.674;2024-02-28T00:54:36;12.55;;;9.27;;
72785;SDS011;60902;53.876;10.674;2024-02-28T00:54:47;12.57;;;9.15;;
72785;SDS011;60902;53.876;10.674;2024-02-28T00:54:58;12.52;;;9.30;;
72785;SDS011;60902;53.876;10.674;2024-02-28T00:55:10;12.27;;;9.23;;
72785;SDS011;60902;53.876;10.674;2024-02-28T00:55:21;12.32;;;9.23;;
72785;SDS011;60902;53.876;10.674;2024-02-28T00:55:32;12.18;;;9.15;;
72785;SDS011;60902;53.876;10.674;2024-02-28T00:55:43;12.13;;;9.13;;
72785;SDS011;60902;53.876;10.674;2024-02-28T00:55:54;11.98;;;8.93;;
72785;SDS011;60902;53.876;10.674;2024-02-28T00:56:05;12.23;;;9.13;;
72785;SDS011;60902;53.876;10.674;2024-02-28T00:56:17;12.15;;;9.45;;
72785;SDS011;60902;53.876;10.674;2024-02-28T00:56:30;12.10;;;9.57;;
72785;SDS011;60902;53.876;10.674;2024-02-28T00:56:41;12.20;;;9.48;;
72785;SDS011;60902;53.876;10.674;2024-02-28T00:56:52;12.15;;;9.23;;
72785;SDS011;60902;53.876;10.674;2024-02-28T00:57:03;12.00;;;8.80;;
72785;SDS011;60902;53.876;10.674;2024-02-28T00:57:14;12.00;;;9.02;;
72785;SDS011;60902;53.876;10.674;2024-02-28T00:57:26;12.77;;;9.52;;
72785;SDS011;60902;53.876;10.674;2024-02-28T00:57:38;12.70;;;9.50;;
72785;SDS011;60902;53.876;10.674;2024-02-28T00:57:50;12.35;;;9.38;;
72785;SDS011;60902;53.876;10.674;2024-02-28T00:58:04;12.10;;;9.02;;
72785;SDS011;60902;53.876;10.674;2024-02-28T00:58:15;12.13;;;9.20;;
72785;SDS011;60902;53.876;10.674;2024-02-28T00:58:26;11.95;;;9.35;;
72785;SDS011;60902;53.876;10.674;2024-02-28T00:58:39;11.65;;;8.95;;
72785;SDS011;60902;53.876;10.674;2024-02-28T00:58:50;12.32;;;9.45;;
72785;SDS011;60902;53.876;10.674;2024-02-28T00:59:01;12.40;;;9.50;;
72785;SDS011;60902;53.876;10.674;2024-02-28T00:59:13;12.80;;;9.57;;
72785;SDS011;60902;53.876;10.674;2024-02-28T00:59:24;13.50;;;9.60;;
72785;SDS011;60902;53.876;10.674;2024-02-28T00:59:35;13.48;;;9.95;;
72785;SDS011;60902;53.876;10.674;2024-02-28T00:59:47;12.52;;;9.40;;
72785;SDS011;60902;53.876;10.674;2024-02-28T01:00:00;12.50;;;9.25;;
72785;SDS011;60902;53.876;10.674;2024-02-28T01:00:12;12.60;;;9.40;;
72785;SDS011;60902;53.876;10.674;2024-02-28T01:00:23;12.27;;;9.65;;
72785;SDS011;60902;53.876;10.674;2024-02-28T01:00:34;12.20;;;9.45;;
72785;SDS011;60902;53.876;10.674;2024-02-28T01:00:45;11.82;;;8.98;;
72785;SDS011;60902;53.876;10.674;2024-02-28T01:00:57;12.05;;;9.18;;
72785;SDS011;60902;53.876;10.674;2024-02-28T01:01:08;12.10;;;9.45;;
72785;SDS011;60902;53.876;10.674;2024-02-28T01:01:19;12.68;;;9.93;;
72785;SDS011;60902;53.876;10.674;2024-02-28T01:01:30;12.25;;;9.55;;
72785;SDS011;60902;53.876;10.674;2024-02-28T01:01:43;12.50;;;9.70;;
72785;SDS011;60902;53.876;10.674;2024-02-28T01:01:54;12.07;;;9.40;;
72785;SDS011;60902;53.876;10.674;2024-02-28T01:02:05;12.38;;;9.43;;
72785;SDS011;60902;53.876;10.674;2024-02-28T01:02:16;12.75;;;9.73;;
72785;SDS011;60902;53.876;10.674;2024-02-28T01:02:27;12.93;;;9.88;;
72785;SDS011;60902;53.876;10.674;2024-02-28T01:02:39;12.52;;;9.52;;
72785;SDS011;60902;53.876;10.674;2024-02-28T01:02:51;12.48;;;9.60;;
72785;SDS011;60902;53.876;10.674;2024-02-28T01:03:02;12.57;;;9.90;;
72785;SDS011;60902;53.876;10.674;2024-02-28T01:03:13;12.35;;;9.65;;
72785;SDS011;60902;53.876;10.674;2024-02-28T01:03:28;12.43;;;9.65;;
72785;SDS011;60902;53.876;10.674;2024-02-28T01:03:42;12.23;;;9.48;;
72785;SDS011;60902;53.876;10.674;2024-02-28T01:03:53;11.88;;;8.90;;
72785;SDS011;60902;53.876;10.674;2024-02-28T01:04:04;12.20;;;9.10;;
72785;SDS011;60902;53.876;10.674;2024-02-28T01:04:15;12.18;;;9.05;;
72785;SDS011;60902;53.876;10.674;2024-02-28T01:04:26;12.10;;;9.40;;
72785;SDS011;60902;53.876;10.674;2024-02-28T01:04:43;12.13;;;9.40;;
72785;SDS011;60902;53.876;10.674;2024-02-28T01:04:54;12.30;;;9.35;;
72785;SDS011;60902;53.876;10.674;2024-02-28T01:05:05;12.25;;;9.50;;
72785;SDS011;60902;53.876;10.674;2024-02-28T01:05:17;12.10;;;9.50;;
72785;SDS011;60902;53.876;10.674;2024-02-28T01:05:28;12.43;;;9.80;;
72785;SDS011;60902;53.876;10.674;2024-02-28T01:05:39;12.02;;;9.52;;
72785;SDS011;60902;53.876;10.674;2024-02-28T01:05:50;12.25;;;9.55;;
72785;SDS011;60902;53.876;10.674;2024-02-28T01:06:02;12.13;;;9.35;;
72785;SDS011;60902;53.876;10.674;2024-02-28T01:06:14;12.80;;;9.63;;
72785;SDS011;60902;53.876;10.674;2024-02-28T01:06:26;12.80;;;9.75;;
72785;SDS011;60902;53.876;10.674;2024-02-28T01:06:37;12.73;;;9.60;;
72785;SDS011;60902;53.876;10.674;2024-02-28T01:06:48;12.10;;;9.40;;
72785;SDS011;60902;53.876;10.674;2024-02-28T01:07:01;12.05;;;9.38;;
72785;SDS011;60902;53.876;10.674;2024-02-28T01:07:14;12.23;;;9.43;;
72785;SDS011;60902;53.876;10.674;2024-02-28T01:07:24;12.68;;;9.68;;